createdAt,value
2023-02-11T00:01:50.941Z,8.43
2023-02-11T00:04:18.985Z,8.46
2023-02-11T00:06:46.995Z,8.52
2023-02-11T00:09:14.909Z,8.55
2023-02-11T00:11:44.441Z,8.55
2023-02-11T00:14:12.946Z,8.57
2023-02-11T00:16:41.040Z,8.57
2023-02-11T00:19:09.828Z,8.53
2023-02-11T00:21:37.877Z,8.51
2023-02-11T00:24:05.827Z,8.48
2023-02-11T00:26:34.446Z,8.46
2023-02-11T00:29:06.414Z,8.45
2023-02-11T00:31:35.691Z,8.44
2023-02-11T00:34:03.776Z,8.44
2023-02-11T00:36:31.660Z,8.42
2023-02-11T00:38:59.908Z,8.42
2023-02-11T00:41:29.036Z,8.42
2023-02-11T00:43:56.942Z,8.40
2023-02-11T00:46:26.382Z,8.40
2023-02-11T00:48:58.085Z,8.40
2023-02-11T00:51:26.279Z,8.41
2023-02-11T00:53:54.433Z,8.38
2023-02-11T00:56:22.535Z,8.37
2023-02-11T00:58:50.294Z,8.37
2023-02-11T01:01:18.257Z,8.38
2023-02-11T01:03:47.869Z,8.37
2023-02-11T01:06:16.701Z,8.40
2023-02-11T01:08:44.522Z,8.40
2023-02-11T01:11:14.904Z,8.39
2023-02-11T01:13:43.045Z,8.38
2023-02-11T01:16:12.179Z,8.37
2023-02-11T01:18:40.249Z,8.36
2023-02-11T01:21:11.901Z,8.37
2023-02-11T01:23:39.826Z,8.38
2023-02-11T01:26:07.593Z,8.37
2023-02-11T01:28:35.706Z,8.34
2023-02-11T01:31:04.287Z,8.32
2023-02-11T01:33:32.199Z,8.32
2023-02-11T01:36:02.287Z,8.31
2023-02-11T01:38:32.757Z,8.25
2023-02-11T01:41:01.763Z,8.14
2023-02-11T01:43:37.807Z,8.06
2023-02-11T01:46:15.180Z,8.02
2023-02-11T01:48:45.123Z,7.96
2023-02-11T01:51:14.608Z,7.87
2023-02-11T01:54:03.639Z,7.86
2023-02-11T01:56:48.984Z,7.91
2023-02-11T01:59:19.725Z,7.95
2023-02-11T02:01:50.365Z,7.96
2023-02-11T02:04:20.162Z,7.94
2023-02-11T02:06:50.539Z,7.86
2023-02-11T02:09:23.135Z,7.75
2023-02-11T02:11:51.301Z,7.71
2023-02-11T02:14:19.252Z,7.76
2023-02-11T02:16:47.349Z,7.83
2023-02-11T02:19:27.119Z,7.83
2023-02-11T02:22:16.179Z,7.72
2023-02-11T02:25:11.690Z,7.60
2023-02-11T02:27:43.407Z,7.59
2023-02-11T02:30:31.740Z,7.55
2023-02-11T02:33:23.388Z,7.49
2023-02-11T02:35:56.707Z,7.51
2023-02-11T02:38:28.919Z,7.59
2023-02-11T02:40:58.199Z,7.66
2023-02-11T02:43:27.554Z,7.75
2023-02-11T02:45:55.485Z,7.82
2023-02-11T02:48:28.630Z,7.86
2023-02-11T02:51:07.867Z,7.93
2023-02-11T02:53:43.381Z,7.93
2023-02-11T02:56:15.036Z,7.88
2023-02-11T02:59:02.248Z,7.80
2023-02-11T03:01:36.502Z,7.66
2023-02-11T03:04:06.984Z,7.60
2023-02-11T03:06:43.402Z,7.53
2023-02-11T03:09:16.600Z,7.50
2023-02-11T03:11:44.535Z,7.50
2023-02-11T03:14:14.504Z,7.52
2023-02-11T03:16:44.793Z,7.50
2023-02-11T03:19:15.457Z,7.46
2023-02-11T03:21:47.884Z,7.43
2023-02-11T03:24:18.321Z,7.41
2023-02-11T03:26:50.244Z,7.45
2023-02-11T03:29:20.156Z,7.44
2023-02-11T03:31:53.750Z,7.37
2023-02-11T03:34:26.990Z,7.35
2023-02-11T03:37:00.489Z,7.33
2023-02-11T03:39:32.546Z,7.30
2023-02-11T03:42:01.425Z,7.35
2023-02-11T03:44:32.072Z,7.38
2023-02-11T03:47:00.827Z,7.39
2023-02-11T03:49:29.872Z,7.39
2023-02-11T03:51:59.548Z,7.41
2023-02-11T03:54:31.703Z,7.44
2023-02-11T03:57:00.591Z,7.48
2023-02-11T03:59:28.365Z,7.56
2023-02-11T04:01:56.679Z,7.59
2023-02-11T04:04:25.830Z,7.61
2023-02-11T04:06:54.848Z,7.64
2023-02-11T04:09:24.043Z,7.68
2023-02-11T04:11:52.847Z,7.73
2023-02-11T04:14:20.601Z,7.76
2023-02-11T04:16:48.484Z,7.78
2023-02-11T04:19:18.738Z,7.71
2023-02-11T04:21:46.610Z,7.58
2023-02-11T04:24:14.368Z,7.51
2023-02-11T04:26:43.634Z,7.47
2023-02-11T04:29:12.977Z,7.45
2023-02-11T04:31:40.926Z,7.45
2023-02-11T04:34:08.851Z,7.45
2023-02-11T04:36:36.777Z,7.45
2023-02-11T04:39:05.315Z,7.47
2023-02-11T04:41:34.040Z,7.50
2023-02-11T04:44:06.129Z,7.53
2023-02-11T04:46:34.173Z,7.54
2023-02-11T04:49:03.625Z,7.51
2023-02-11T04:51:31.752Z,7.47
2023-02-11T04:54:00.442Z,7.45
2023-02-11T04:56:28.344Z,7.46
2023-02-11T04:58:56.638Z,7.49
2023-02-11T05:01:26.506Z,7.53
2023-02-11T05:03:54.487Z,7.58
2023-02-11T05:06:22.695Z,7.62
2023-02-11T05:08:58.701Z,7.65
2023-02-11T05:11:27.900Z,7.68
2023-02-11T05:13:55.937Z,7.70
2023-02-11T05:16:25.510Z,7.72
2023-02-11T05:18:53.857Z,7.74
2023-02-11T05:21:23.424Z,7.74
2023-02-11T05:23:51.413Z,7.73
2023-02-11T05:26:19.762Z,7.74
2023-02-11T05:28:47.708Z,7.73
2023-02-11T05:31:18.620Z,7.74
2023-02-11T05:33:47.973Z,7.74
2023-02-11T05:36:16.981Z,7.75
2023-02-11T05:38:45.179Z,7.76
2023-02-11T05:41:15.483Z,7.75
2023-02-11T05:43:43.553Z,7.77
2023-02-11T05:46:11.476Z,7.79
2023-02-11T05:48:39.797Z,7.79
2023-02-11T05:51:09.601Z,7.80
2023-02-11T05:53:37.553Z,7.81
2023-02-11T05:56:05.658Z,7.82
2023-02-11T05:58:33.821Z,7.84
2023-02-11T06:01:01.890Z,7.87
2023-02-11T06:03:30.371Z,7.89
2023-02-11T06:05:59.530Z,7.90
2023-02-11T06:08:30.880Z,7.90
2023-02-11T06:10:58.789Z,7.90
2023-02-11T06:13:26.669Z,7.91
2023-02-11T06:16:00.853Z,7.91
2023-02-11T06:18:28.999Z,7.93
2023-02-11T06:20:56.920Z,7.91
2023-02-11T06:23:24.734Z,7.91
2023-02-11T06:25:54.098Z,7.92
2023-02-11T06:28:21.994Z,7.93
2023-02-11T06:30:49.918Z,7.93
2023-02-11T06:33:17.874Z,7.93
2023-02-11T06:35:45.638Z,7.93
2023-02-11T06:38:13.530Z,7.95
2023-02-11T06:40:42.013Z,7.96
2023-02-11T06:43:11.309Z,7.95
2023-02-11T06:45:40.614Z,7.96
2023-02-11T06:48:08.695Z,7.98
2023-02-11T06:50:36.558Z,7.98
2023-02-11T06:53:05.457Z,7.98
2023-02-11T06:55:33.266Z,7.97
2023-02-11T06:58:01.133Z,7.98
2023-02-11T07:00:30.693Z,7.97
2023-02-11T07:02:58.549Z,7.98
2023-02-11T07:05:27.136Z,7.98
2023-02-11T07:07:55.000Z,7.99
2023-02-11T07:10:22.824Z,8.00
2023-02-11T07:12:50.651Z,8.00
2023-02-11T07:15:18.603Z,8.00
2023-02-11T07:17:47.859Z,8.01
2023-02-11T07:20:15.836Z,8.00
2023-02-11T07:22:43.674Z,8.02
2023-02-11T07:25:11.638Z,8.05
2023-02-11T07:27:39.452Z,8.04
2023-02-11T07:30:13.294Z,8.06
2023-02-11T07:32:43.558Z,8.07
2023-02-11T07:35:15.996Z,8.08
2023-02-11T07:37:48.457Z,8.08
2023-02-11T07:40:16.377Z,8.10
2023-02-11T07:42:44.137Z,8.10
2023-02-11T07:45:15.465Z,8.12
2023-02-11T07:47:43.969Z,8.11
2023-02-11T07:50:13.470Z,8.10
2023-02-11T07:52:41.338Z,8.10
2023-02-11T07:55:10.394Z,8.11
2023-02-11T07:57:38.457Z,8.13
2023-02-11T08:00:07.183Z,8.13
2023-02-11T08:02:36.413Z,8.15
2023-02-11T08:05:04.222Z,8.15
2023-02-11T08:07:33.481Z,8.17
2023-02-11T08:10:01.611Z,8.18
2023-02-11T08:12:29.563Z,8.21
2023-02-11T08:14:57.485Z,8.23
2023-02-11T08:17:25.429Z,8.26
2023-02-11T08:19:53.260Z,8.28
2023-02-11T08:22:21.385Z,8.33
2023-02-11T08:24:52.401Z,8.35
2023-02-11T08:27:20.627Z,8.38
2023-02-11T08:29:48.631Z,8.40
2023-02-11T08:32:16.663Z,8.45
2023-02-11T08:34:45.878Z,8.50
2023-02-11T08:37:13.934Z,8.55
2023-02-11T08:39:44.532Z,8.60
2023-02-11T08:42:15.634Z,8.63
2023-02-11T08:44:44.109Z,8.67
2023-02-11T08:47:12.252Z,8.69
2023-02-11T08:49:43.471Z,8.74
2023-02-11T08:52:11.667Z,8.77
2023-02-11T08:54:39.750Z,8.83
2023-02-11T08:57:17.350Z,8.87
2023-02-11T08:59:48.940Z,8.93
2023-02-11T09:02:17.376Z,8.97
2023-02-11T09:04:45.326Z,9.02
2023-02-11T09:07:13.851Z,9.09
2023-02-11T09:09:42.834Z,9.19
2023-02-11T09:12:10.796Z,9.27
2023-02-11T09:14:39.776Z,9.35
2023-02-11T09:17:09.005Z,9.42
2023-02-11T09:19:48.188Z,9.47
2023-02-11T09:22:15.965Z,9.50
2023-02-11T09:24:44.123Z,9.52
2023-02-11T09:27:11.980Z,9.51
2023-02-11T09:29:39.854Z,9.51
2023-02-11T09:32:10.050Z,9.50
2023-02-11T09:34:38.274Z,9.49
2023-02-11T09:37:06.572Z,9.46
2023-02-11T09:39:34.549Z,9.44
2023-02-11T09:42:20.292Z,9.44
2023-02-11T09:44:56.312Z,9.46
2023-02-11T12:46:59.823Z,13.12
2023-02-11T12:49:34.115Z,13.08
2023-02-11T12:52:19.988Z,13.02
2023-02-11T12:54:53.334Z,13.02
2023-02-11T12:57:23.791Z,13.01
2023-02-11T12:59:59.105Z,12.98
2023-02-11T13:02:34.872Z,12.88
2023-02-11T13:05:05.442Z,12.88
2023-02-11T13:07:36.751Z,12.87
2023-02-11T13:10:07.811Z,12.94
2023-02-11T13:12:54.564Z,12.96
2023-02-11T13:41:19.509Z,12.92
2023-02-11T13:43:58.285Z,12.92
2023-02-11T13:46:27.262Z,12.85
2023-02-11T13:48:56.416Z,12.74
2023-02-11T13:51:36.151Z,12.62
2023-02-11T13:54:04.569Z,12.55
2023-02-11T13:56:35.108Z,12.50
2023-02-11T13:59:04.640Z,12.44
2023-02-11T14:01:40.695Z,12.34
2023-02-11T14:16:35.583Z,12.60
2023-02-11T14:19:06.459Z,12.70
2023-02-11T14:21:37.022Z,12.66
2023-02-11T14:24:42.236Z,12.69
2023-02-11T14:27:12.325Z,12.81
2023-02-11T14:29:45.051Z,12.94
2023-02-11T14:32:21.026Z,13.07
2023-02-11T14:34:55.844Z,13.09
2023-02-11T14:37:28.160Z,13.05
2023-02-11T14:39:59.574Z,13.02
2023-02-11T14:42:34.120Z,13.02
2023-02-11T14:45:06.137Z,13.01
2023-02-11T14:47:40.063Z,12.98
2023-02-11T14:50:09.986Z,12.93
2023-02-11T14:52:39.064Z,12.92
2023-02-11T14:55:14.720Z,12.88
2023-02-11T14:57:45.873Z,12.85
2023-02-11T15:00:18.989Z,12.81
2023-02-11T15:02:50.006Z,12.77
2023-02-11T15:05:19.119Z,12.73
2023-02-11T15:07:49.156Z,12.68
2023-02-11T15:10:19.059Z,12.62
2023-02-11T15:12:49.186Z,12.56
2023-02-11T15:15:17.730Z,12.43
2023-02-11T15:17:49.508Z,12.39
2023-02-11T15:20:23.283Z,12.41
2023-02-11T15:22:53.400Z,12.36
2023-02-11T15:25:23.017Z,12.31
2023-02-11T15:27:56.423Z,12.23
2023-02-11T15:30:28.518Z,12.14
2023-02-11T15:32:59.019Z,12.10
2023-02-11T15:35:29.576Z,12.07
2023-02-11T15:37:58.524Z,11.99
2023-02-11T15:40:29.716Z,11.92
2023-02-11T15:42:58.837Z,11.86
2023-02-11T15:45:30.493Z,11.79
2023-02-11T15:48:01.173Z,11.73
2023-02-11T15:50:36.129Z,11.67
2023-02-11T15:53:06.235Z,11.64
2023-02-11T15:55:34.148Z,11.58
2023-02-11T15:58:02.914Z,11.56
2023-02-11T16:00:34.826Z,11.52
2023-02-11T16:03:02.823Z,11.45
2023-02-11T16:05:33.625Z,11.32
2023-02-11T16:08:06.343Z,11.18
2023-02-11T16:10:36.192Z,11.09
2023-02-11T16:13:05.812Z,11.04
2023-02-11T16:15:50.778Z,10.98
2023-02-11T16:18:39.951Z,10.92
2023-02-11T16:21:17.008Z,10.86
2023-02-11T16:23:52.692Z,10.82
2023-02-11T16:26:28.177Z,10.80
2023-02-11T16:29:04.384Z,10.76
2023-02-11T16:31:36.133Z,10.72
2023-02-11T16:34:09.773Z,10.70
2023-02-11T16:36:39.398Z,10.71
2023-02-11T16:39:07.512Z,10.70
2023-02-11T16:41:35.775Z,10.67
2023-02-11T16:44:03.696Z,10.65
2023-02-11T16:46:32.397Z,10.63
2023-02-11T16:49:06.000Z,10.60
2023-02-11T16:51:33.805Z,10.54
2023-02-11T16:54:03.178Z,10.50
2023-02-11T16:56:34.137Z,10.48
2023-02-11T16:59:02.428Z,10.44
2023-02-11T17:01:31.174Z,10.38
2023-02-11T17:03:59.086Z,10.36
2023-02-11T17:06:27.611Z,10.34
2023-02-11T17:08:55.624Z,10.30
2023-02-11T17:11:25.240Z,10.27
2023-02-11T17:13:53.194Z,10.25
2023-02-11T17:16:25.153Z,10.22
2023-02-11T17:18:54.960Z,10.18
2023-02-11T17:21:27.588Z,10.15
2023-02-11T17:23:56.599Z,10.13
2023-02-11T17:26:29.101Z,10.11
2023-02-11T17:28:57.126Z,10.09
2023-02-11T17:31:25.000Z,10.06
2023-02-11T17:33:54.339Z,10.04
2023-02-11T17:36:22.260Z,10.02
2023-02-11T17:38:51.327Z,10.00
2023-02-11T17:41:19.517Z,9.98
2023-02-11T17:43:49.658Z,9.96
2023-02-11T17:46:17.830Z,9.94
2023-02-11T17:48:50.814Z,9.93
2023-02-11T17:51:23.644Z,9.90
2023-02-11T17:53:54.151Z,9.89
2023-02-11T17:56:22.224Z,9.88
2023-02-11T17:58:52.736Z,9.87
2023-02-11T18:01:21.006Z,9.87
2023-02-11T18:03:49.131Z,9.84
2023-02-11T18:06:17.453Z,9.83
2023-02-11T18:08:45.448Z,9.82
2023-02-11T18:11:15.169Z,9.79
2023-02-11T18:13:43.353Z,9.77
2023-02-11T18:16:16.568Z,9.75
2023-02-11T18:18:47.976Z,9.74
2023-02-11T18:21:17.474Z,9.72
2023-02-11T18:23:46.042Z,9.72
2023-02-11T18:26:14.554Z,9.70
2023-02-11T18:28:45.620Z,9.69
2023-02-11T18:31:16.101Z,9.68
2023-02-11T18:33:44.069Z,9.66
2023-02-11T18:36:14.424Z,9.64
2023-02-11T18:38:44.521Z,9.61
2023-02-11T18:41:12.326Z,9.58
2023-02-11T18:43:41.684Z,9.58
2023-02-11T18:46:10.467Z,9.56
2023-02-11T18:48:41.560Z,9.54
2023-02-11T18:51:09.908Z,9.53
2023-02-11T18:53:37.755Z,9.52
2023-02-11T18:56:13.367Z,9.51
2023-02-11T18:58:41.584Z,9.50
2023-02-11T19:01:13.833Z,9.48
2023-02-11T19:03:45.982Z,9.45
2023-02-11T19:06:18.455Z,9.44
2023-02-11T19:08:46.883Z,9.44
2023-02-11T19:11:16.305Z,9.43
2023-02-11T19:13:47.762Z,9.42
2023-02-11T19:16:19.861Z,9.41
2023-02-11T19:18:51.334Z,9.40
2023-02-11T19:21:20.932Z,9.39
2023-02-11T19:23:49.023Z,9.40
2023-02-11T19:26:17.353Z,9.38
2023-02-11T19:28:45.440Z,9.37
2023-02-11T19:31:13.644Z,9.35
2023-02-11T19:33:41.607Z,9.34
2023-02-11T19:36:16.443Z,9.33
2023-02-11T19:38:44.756Z,9.32
2023-02-11T19:41:13.341Z,9.27
2023-02-11T19:43:52.827Z,9.26
2023-02-11T19:46:21.986Z,9.25
2023-02-11T19:48:51.842Z,9.22
2023-02-11T19:51:22.246Z,9.20
2023-02-11T19:53:52.676Z,9.19
2023-02-11T19:56:21.030Z,9.17
2023-02-11T19:58:49.639Z,9.16
2023-02-11T20:01:18.731Z,9.13
2023-02-11T20:03:49.393Z,9.13
2023-02-11T20:06:18.741Z,9.12
2023-02-11T20:08:48.560Z,9.11
2023-02-11T20:11:24.460Z,9.10
2023-02-11T20:13:52.532Z,9.09
2023-02-11T20:16:23.096Z,9.09
2023-02-11T20:18:52.085Z,9.07
2023-02-11T20:21:20.801Z,9.07
2023-02-11T20:23:52.522Z,9.06
2023-02-11T20:26:21.759Z,9.05
2023-02-11T20:28:50.397Z,9.06
2023-02-11T20:31:18.513Z,9.05
2023-02-11T20:33:48.494Z,9.07
2023-02-11T20:36:17.930Z,9.05
2023-02-11T20:38:45.940Z,9.02
2023-02-11T20:41:16.494Z,9.02
2023-02-11T20:43:46.251Z,9.00
2023-02-11T20:46:16.350Z,9.01
2023-02-11T20:48:44.701Z,9.00
2023-02-11T20:51:13.981Z,9.00
2023-02-11T20:53:48.866Z,8.99
2023-02-11T20:56:28.099Z,8.99
2023-02-11T20:58:56.997Z,8.98
2023-02-11T21:01:36.866Z,8.96
2023-02-11T21:04:06.638Z,8.96
2023-02-11T21:06:37.714Z,8.95
2023-02-11T21:09:07.493Z,8.95
2023-02-11T21:11:38.877Z,8.95
2023-02-11T21:14:07.081Z,8.94
2023-02-11T21:16:35.589Z,8.94
2023-02-11T21:19:05.091Z,8.93
2023-02-11T21:21:33.168Z,8.93
2023-02-11T21:24:01.359Z,8.92
2023-02-11T21:26:29.820Z,8.90
2023-02-11T21:29:02.780Z,8.89
2023-02-11T21:31:32.177Z,8.87
2023-02-11T21:34:02.862Z,8.86
2023-02-11T21:39:13.782Z,8.84
2023-02-11T21:41:41.621Z,8.83
2023-02-11T21:44:12.287Z,8.81
2023-02-11T21:46:40.433Z,8.78
2023-02-11T21:49:08.338Z,8.77
2023-02-11T21:52:16.168Z,8.75
2023-02-11T21:54:44.439Z,8.74
2023-02-11T21:57:12.197Z,8.72
2023-02-11T21:59:41.796Z,8.71
2023-02-11T22:02:10.597Z,8.71
2023-02-11T22:04:39.716Z,8.70
2023-02-11T22:07:12.812Z,8.70
2023-02-11T22:09:41.079Z,8.68
2023-02-11T22:12:10.166Z,8.67
2023-02-11T22:14:38.287Z,8.67
2023-02-11T22:17:08.728Z,8.67
2023-02-11T22:19:36.762Z,8.66
2023-02-11T22:22:04.888Z,8.66
2023-02-11T22:24:32.701Z,8.65
2023-02-11T22:27:00.713Z,8.67
2023-02-11T22:29:28.798Z,8.67
2023-02-11T22:31:56.845Z,8.65
2023-02-11T22:34:26.709Z,8.63
2023-02-11T22:36:54.456Z,8.63
2023-02-11T22:39:22.452Z,8.63
2023-02-11T22:41:50.704Z,8.62
2023-02-11T22:44:20.132Z,8.61
2023-02-11T22:46:48.497Z,8.62
2023-02-11T22:49:17.466Z,8.61
2023-02-11T22:51:50.688Z,8.61
2023-02-11T22:54:22.561Z,8.58
2023-02-11T22:56:51.833Z,8.56
2023-02-11T22:59:21.222Z,8.57
2023-02-11T23:01:49.220Z,8.56
2023-02-11T23:04:19.304Z,8.56
2023-02-11T23:06:50.783Z,8.56
2023-02-11T23:09:18.960Z,8.56
2023-02-11T23:11:48.622Z,8.56
2023-02-11T23:14:16.464Z,8.57
2023-02-11T23:16:45.924Z,8.58
2023-02-11T23:19:17.245Z,8.57
2023-02-11T23:21:47.741Z,8.55
2023-02-11T23:24:17.332Z,8.54
2023-02-11T23:26:45.735Z,8.55
2023-02-11T23:29:14.207Z,8.57
2023-02-11T23:31:44.063Z,8.56
2023-02-11T23:34:12.241Z,8.56
2023-02-11T23:36:40.224Z,8.56
2023-02-11T23:39:08.059Z,8.56
2023-02-11T23:41:37.475Z,8.55
2023-02-11T23:44:06.489Z,8.54
2023-02-11T23:46:34.604Z,8.53
2023-02-11T23:49:03.028Z,8.54
2023-02-11T23:51:31.537Z,8.53
2023-02-11T23:53:59.623Z,8.54
2023-02-11T23:56:28.466Z,8.55
2023-02-11T23:58:58.963Z,8.53
